• Join FlightAware (Why Join?)
  • Login
  • US Flag 
04:02PM EDT


 

Airport Tracker/Info


-or-


 

Live Flight TrackerFlight Track Log ✈ AMF1026 ✈ 26-Jun-2013 ✈ KALB - KCVG

Flight Track Log - Related Links

Times and Time Zones

All times are in EDT time to prevent confusion due to time zone crossing. See the AMF1026 flight status page for this flight to view local times or setup timezone preferences in your user account.

Time Position Orientation Groundspeed Altitude Reporting Facility
EDT Latitude Longitude Course Direction KTS MPH feet Rate Location/Type
09:15PM 42.7236 -73.8081 253° West 147 169 1,000  Level Boston Center
09:17PM 42.7103 -73.8669 253° West 202 232 2,700 1,500 Climbing Boston Center
09:17PM 42.7181 -73.9125 283° West 175 201 3,700 1,500 Climbing Boston Center
09:18PM 42.7319 -73.9750 287° West 187 215 5,100 1,440 Climbing Boston Center
09:19PM 42.7433 -74.0403 283° West 187 215 6,600 1,260 Climbing Boston Center
09:20PM 42.7467 -74.1081 274° West 182 209 7,700 1,200 Climbing Boston Center
09:21PM 42.7456 -74.1844 269° West 182 209 9,000 1,140 Climbing Boston Center
09:22PM 42.7444 -74.2553 269° West 187 215 10,000 1,080 Climbing Boston Center
09:23PM 42.7436 -74.3003 269° West 187 215 11,200 960 Climbing Boston Center
09:24PM 42.7194 -74.3844 249° West 187 215 12,000 360 Climbing Boston Center
09:25PM 42.6867 -74.4681 242° Southwest 220 253 12,000  Level Boston Center
09:26PM 42.6561 -74.5406 240° Southwest 246 283 12,000  Level Boston Center
09:27PM 42.6189 -74.6325 241° Southwest 251 289 12,000  Level Boston Center
09:28PM 42.5925 -74.7019 243° Southwest 256 295 12,000  Level Boston Center
09:29PM 42.5550 -74.8078 244° Southwest 261 300 12,000  Level Boston Center
09:30PM 42.5219 -74.8939 243° Southwest 268 308 12,000  Level Boston Center
09:31PM 42.5053 -74.9889 257° West 268 308 12,000  Level Boston Center
09:32PM 42.4886 -75.0811 256° West 263 303 12,000  Level Boston Center
09:33PM 42.4764 -75.1539 257° West 263 303 12,000  Level Boston Center
09:34PM 42.4589 -75.2714 259° West 258 297 12,000  Level Boston Center
09:35PM 42.4275 -75.3572 244° Southwest 263 303 12,000  Level Boston Center
09:37PM 42.3514 -75.5097 236° Southwest 253 291 12,000  Level New York Center
09:38PM 42.3125 -75.5939 238° Southwest 259 298 12,000 -60 Level New York Center
09:39PM 42.2717 -75.6778 237° Southwest 265 305 11,900  Descending New York Center
09:40PM 42.2328 -75.7617 238° Southwest 265 305 12,000  Climbing New York Center
09:41PM 42.1936 -75.8483 239° Southwest 265 305 12,000 -60 Level New York Center
09:42PM 42.1733 -75.9361 253° West 260 299 11,900  Descending New York Center
09:43PM 42.1647 -76.0333 263° West 260 299 12,000  Climbing New York Center
09:44PM 42.1564 -76.1306 263° West 260 299 12,000  Level New York Center
09:45PM 42.1375 -76.2269 255° West 266 306 12,000 -60 Level New York Center
09:46PM 42.1064 -76.3139 244° Southwest 266 306 11,900  Descending New York Center
09:47PM 42.0750 -76.4033 245° Southwest 266 306 12,000  Climbing New York Center
09:48PM 42.0436 -76.4931 245° Southwest 266 306 12,000  Level New York Center
09:49PM 42.0167 -76.5800 247° West 271 312 12,000  Level New York Center
09:50PM 41.9831 -76.6692 243° Southwest 271 312 12,000  Level New York Center
09:51PM 41.9514 -76.7583 244° Southwest 271 312 12,000  Level New York Center
09:52PM 41.9200 -76.8475 245° Southwest 271 312 12,000  Level New York Center
09:53PM 41.8919 -76.9400 248° West 273 314 12,000  Level Cleveland Center
09:54PM 41.8608 -77.0169 242° Southwest 260 299 12,000  Level Cleveland Center
09:55PM 41.8303 -77.1050 245° Southwest 260 299 12,000  Level Cleveland Center
09:56PM 41.7975 -77.1933 244° Southwest 260 299 12,000  Level Cleveland Center
09:57PM 41.7644 -77.2814 243° Southwest 260 299 12,000  Level Cleveland Center
09:58PM 41.7314 -77.3664 242° Southwest 260 299 12,000 -60 Level Cleveland Center
09:59PM 41.7006 -77.4542 245° Southwest 260 299 11,900  Descending Cleveland Center
10:00PM 41.6594 -77.5508 240° Southwest 265 305 12,100  Climbing Cleveland Center
10:01PM 41.6283 -77.6356 244° Southwest 265 305 12,000 -60 Descending Cleveland Center
10:02PM 41.5950 -77.7231 243° Southwest 270 311 12,000  Level Cleveland Center
10:03PM 41.5617 -77.8136 244° Southwest 270 311 12,000  Level Cleveland Center
10:04PM 41.5306 -77.9008 245° Southwest 265 305 12,100  Climbing Cleveland Center
10:05PM 41.4969 -77.9881 243° Southwest 265 305 12,100 -60 Level Cleveland Center
10:06PM 41.4678 -78.0753 246° West 265 305 12,000 -60 Descending Cleveland Center
10:07PM 41.4383 -78.1622 246° West 265 305 12,000  Level Cleveland Center
10:08PM 41.4131 -78.2492 249° West 265 305 12,100  Climbing Cleveland Center
10:09PM 41.3836 -78.3386 246° West 260 299 12,000 -60 Descending Cleveland Center
10:10PM 41.3583 -78.4308 250° West 260 299 12,000  Level Cleveland Center
10:11PM 41.3328 -78.5203 249° West 260 299 12,000  Level Cleveland Center
10:12PM 41.3008 -78.6069 244° Southwest 260 299 12,100  Climbing Cleveland Center
10:13PM 41.2753 -78.6989 250° West 260 299 12,100  Level Cleveland Center
10:14PM 41.2497 -78.7881 249° West 255 293 12,100  Level Cleveland Center
10:15PM 41.2219 -78.8769 247° West 255 293 12,100 -60 Level Cleveland Center
10:16PM 41.1981 -78.9578 249° West 255 293 12,000  Descending Cleveland Center
10:17PM 41.1722 -79.0439 248° West 255 293 12,100  Climbing Cleveland Center
10:18PM 41.1442 -79.1356 248° West 255 293 12,100 -60 Level Cleveland Center
10:19PM 41.1183 -79.2381 252° West 260 299 12,000 -120 Descending Cleveland Center
10:20PM 41.0922 -79.3267 249° West 265 305 11,900 -60 Descending Cleveland Center
10:21PM 41.0661 -79.4128 248° West 265 305 11,900  Level Cleveland Center
10:22PM 41.0397 -79.5011 248° West 265 305 12,000  Climbing Cleveland Center
10:23PM 41.0133 -79.5897 248° West 260 299 11,900 -60 Descending Cleveland Center
10:24PM 40.9869 -79.6781 248° West 260 299 11,900  Level Cleveland Center
10:25PM 40.9586 -79.7664 247° West 260 299 12,000  Climbing Cleveland Center
10:26PM 40.9319 -79.8547 248° West 260 299 11,900 -60 Descending Cleveland Center
10:27PM 40.9075 -79.9458 250° West 260 299 11,900  Level Cleveland Center
10:28PM 40.8789 -80.0339 247° West 260 299 12,000  Climbing Cleveland Center
10:29PM 40.8542 -80.1219 250° West 271 312 12,000  Level Cleveland Center
10:30PM 40.8275 -80.2100 248° West 277 319 12,000 -60 Level Cleveland Center
10:31PM 40.7964 -80.2950 244° Southwest 271 312 11,900  Descending Cleveland Center
10:32PM 40.7569 -80.3667 234° Southwest 265 305 12,000  Climbing Cleveland Center
10:33PM 40.7111 -80.4433 232° Southwest 270 311 12,000  Level Cleveland Center
10:34PM 40.6675 -80.5147 231° Southwest 270 311 12,000 -60 Level Cleveland Center
10:35PM 40.6239 -80.5914 233° Southwest 270 311 11,900 -60 Descending Cleveland Center
10:36PM 40.5758 -80.6650 229° Southwest 258 297 11,900 -540 Level Cleveland Center
10:37PM 40.5297 -80.7389 231° Southwest 258 297 10,900 -960 Descending Cleveland Center
10:38PM 40.4839 -80.8178 233° Southwest 263 303 10,000 -900 Descending Cleveland Center
10:39PM 40.4419 -80.8942 234° Southwest 269 310 9,100 -960 Descending Cleveland Center
10:40PM 40.4022 -80.9675 235° Southwest 274 315 8,100 -960 Descending Cleveland Center
10:41PM 40.3600 -81.0436 234° Southwest 274 315 7,200 -900 Descending Cleveland Center
10:42PM 40.3203 -81.1222 236° Southwest 268 308 6,400 -600 Descending Cleveland Center
10:43PM 40.2761 -81.1900 230° Southwest 268 308 6,000 -240 Descending Cleveland Center
10:44PM 40.2192 -81.2847 232° Southwest 246 283 6,000 -60 Level Indianapolis Center
10:45PM 40.1819 -81.3417 229° Southwest 244 281 5,900 -60 Descending Indianapolis Center
10:46PM 40.1506 -81.4339 246° West 232 267 5,900  Level Indianapolis Center
10:47PM 40.1361 -81.5097 256° West 217 250 5,900  Level Indianapolis Center
10:48PM 40.1319 -81.5914 266° West 224 258 5,900  Level Indianapolis Center
10:49PM 40.1131 -81.6756 254° West 240 276 5,900  Level Indianapolis Center
10:50PM 40.0867 -81.7608 248° West 249 287 5,900  Level Indianapolis Center
10:51PM 40.0617 -81.8375 247° West 247 284 5,900  Level Indianapolis Center
10:52PM 40.0356 -81.9228 248° West 251 289 5,900  Level Indianapolis Center
10:53PM 40.0081 -82.0075 247° West 250 288 5,900  Level Indianapolis Center
10:54PM 39.9800 -82.0911 246° West 251 289 5,900  Level Indianapolis Center
10:56PM 39.9436 -82.2022 247° West 253 291 6,000  Climbing Indianapolis Center
10:56PM 39.9256 -82.2631 249° West 255 293 6,000  Level Indianapolis Center
10:57PM 39.8933 -82.3478 244° Southwest 258 297 6,000  Level Indianapolis Center
10:59PM 39.8628 -82.4497 249° West 258 297 6,000  Level Indianapolis Center
11:00PM 39.8350 -82.5364 247° West 257 296 6,000  Level Indianapolis Center
11:01PM 39.8103 -82.6233 250° West 255 293 6,000  Level Indianapolis Center
11:02PM 39.7819 -82.7103 247° West 258 297 6,000  Level Indianapolis Center
11:03PM 39.7581 -82.7969 250° West 255 293 6,000  Level Indianapolis Center
11:04PM 39.7344 -82.8825 250° West 254 292 6,000  Level Indianapolis Center
11:05PM 39.7025 -82.9692 244° Southwest 254 292 6,000  Level Indianapolis Center
11:06PM 39.6706 -83.0525 244° Southwest 255 293 6,000  Level Indianapolis Center
11:07PM 39.6397 -83.1344 244° Southwest 259 298 6,000  Level Indianapolis Center
11:08PM 39.6128 -83.2206 248° West 260 299 6,000  Level Indianapolis Center
11:09PM 39.5850 -83.3114 248° West 257 296 6,000  Level Indianapolis Center
11:10PM 39.5606 -83.3956 249° West 255 293 6,000  Level Indianapolis Center
11:11PM 39.5333 -83.4789 247° West 253 291 6,000  Level Indianapolis Center
11:12PM 39.5033 -83.5753 248° West 257 296 6,000  Level Indianapolis Center
11:13PM 39.4786 -83.6533 248° West 254 292 6,000  Level Indianapolis Center
11:14PM 39.4494 -83.7411 247° West 255 293 6,000  Level Indianapolis Center
11:15PM 39.4247 -83.8256 249° West 252 290 6,000  Level Indianapolis Center
11:16PM 39.3961 -83.9081 246° West 250 288 6,000  Level Indianapolis Center
11:17PM 39.3608 -83.9878 240° Southwest 251 289 6,000  Level Indianapolis Center
11:18PM 39.3314 -84.0686 245° Southwest 250 288 6,000  Level Indianapolis Center
11:19PM 39.3222 -84.1603 263° West 252 290 6,000  Level Indianapolis Center
11:20PM 39.3117 -84.2511 261° West 253 291 6,000  Level Indianapolis Center
11:21PM 39.2983 -84.3378 259° West 248 285 6,000  Level Indianapolis Center
11:22PM 39.2881 -84.4158 260° West 226 260 6,000  Level Indianapolis Center
11:23PM 39.2764 -84.4972 260° West 226 260 6,000 -360 Level Indianapolis Center
11:24PM 39.2675 -84.5700 261° West 211 243 5,300 -1,020 Descending Indianapolis Center
11:25PM 39.2575 -84.6344 259° West 191 220 4,000 -840 Descending Indianapolis Center
11:26PM 39.2375 -84.6922 246° West 184 212 3,600 -660 Descending Indianapolis Center
11:28PM 39.1167 -84.6667 171° South 129 148 1,900 -720 Descending Cincinnati TRACON
11:29PM 39.0833 -84.6667 180° South 122 140 1,300 -600 Descending Cincinnati TRACON
11:31PM 39.0488 -84.6678 176° South  Level Estimated